Chewelah, WA

8:55 PM PDT on September 02, 2014 (GMT -0700)
405 E. Lincoln | Change Station
CLOSE
Current Station
Personal Weather Station
Location: Chewelah, WA
Elevation: 1671 ft
Nearby Weather Stations

Elev 1671 ft 48.28 °N, 117.71 °W | Updated 13 seconds ago

Mostly Cloudy
Mostly Cloudy
60.2 °F
Feels Like 60.2 °F
N
2.0
Wind Variable Wind from NNE
Gusts 2.0 mph

Today
High -- | Low -- °F
--% Chance of Precip.
Yesterday
High -- | Low -- °F
Precip. -- in
6:10 AM 7:30 PM
First Quarter, 58% visible
Pressure 29.65 in
Visibility 10.0 miles
Clouds Mostly Cloudy 7500 ft
Overcast 10000 ft
Dew Point 53 °F
Humidity 78%
Rainfall 0.03 in
Snow Depth Not available.
UV 0 out of 12
Pollen 6.40 out of 12
PM2.5 Good
Flu Activity Not available.
SPECI KDEW 030320Z AUTO 30011KT 10SM -RA BKN075 OVC100 17/09 A2965 RMK AO2 PK WND 28028/0310 WSHFT 0300 RAB06 P0000 T01670094

More Conditions Fewer Conditions

Pressure 29.65 in
Visibility 10.0 miles
Clouds Mostly Cloudy 7500 ft
Overcast 10000 ft
Dew Point 53 °F
Humidity 78%
Rainfall 0.03 in
Snow Depth Not available.
UV 0 out of 12
Pollen 6.40 out of 12
PM2.5 Good
Flu Activity Not available.
SPECI KDEW 030320Z AUTO 30011KT 10SM -RA BKN075 OVC100 17/09 A2965 RMK AO2 PK WND 28028/0310 WSHFT 0300 RAB06 P0000 T01670094

More Conditions Fewer Conditions

10-Day Weather Forecast

Almanac

Astronomy

Sep. 02, 2014 Rise Set
Actual Time 6:10 AM PDT 7:30 PM PDT
Civil Twilight 5:37 AM PDT 8:02 PM PDT
Nautical Twilight 4:58 AM PDT 8:41 PM PDT
Astronomical Twilight 4:16 AM PDT 9:23 PM PDT
Moon 2:32 PM PDT (9/2) 11:54 PM PDT (9/2)
Length of Visible Light 14h 24m
Length of Day
13h 20m
Tomorrow will be 3m 24s shorter.
First Quarter, 58% of the Moon is Illuminated
Today
First Quarter
Sep 8
Full
Sep 15
Last Quarter
Sep 24
New
Oct 1
First Quarter

Today's Extremes

State Highs State Lows

Community

WunderPhotos

Upload Photos

1,749,867 photos uploaded!

Nearby

Air Quality

  Air Quality AQ Index Pollutant
Yesterday Good
OZONE
Yesterday Good
PM10
Current Good
PM2.5
Tuesday Good
PM10
Tuesday Good
OZONE
Wednesday Good
PM10
Wednesday Good
OZONE

Snow Depth

Station Depth Elevation
Bunchgrass Meadow 0 in 5000 ft
Quartz Peak 1 in 4700 ft
Sentinel Butte 0 in 4920 ft
Moses Mountain 1 in 5300 ft
Harts Pass 0 in 6500 ft

Earthquake Activity

City Distance Mag. Time & Date
Mullan, Idaho 105 miles 2.5 1:01 AM PDT
2014-08-31
Minimum magnitude displayed is 2.5.

Coastal Water Temperatures

Place Temperature
No Stations Reporting

Nearby Weather Stations